Time,TemperatureF,DewpointF,PressureIn,WindDirection,WindDirectionDegrees,WindSpeedMPH,WindSpeedGustMPH,Humidity,HourlyPrecipIn,Conditions,Clouds,dailyrainin,SoftwareType,DateUTC
2013-03-08 00:01:00,37.0,33.0,-100.00,NW,320,0.0,1.0,85,-99.99,,,-99.99,,2013-03-08 08:01:00,
2013-03-08 01:03:00,36.0,32.0,-100.00,NE,35,0.0,2.0,85,-99.99,,,-99.99,,2013-03-08 09:03:00,
2013-03-08 01:11:00,36.0,32.0,-100.00,NE,35,0.0,2.0,85,-99.99,,,-99.99,,2013-03-08 09:11:00,
2013-03-08 02:01:00,34.0,31.0,-100.00,SSW,200,3.0,5.0,88,-99.99,,,-99.99,,2013-03-08 10:01:00,
2013-03-08 03:01:00,33.0,31.0,-100.00,SW,230,2.0,3.0,92,-99.99,,,-99.99,,2013-03-08 11:01:00,
2013-03-08 03:11:00,33.0,31.0,-100.00,SW,230,2.0,3.0,92,-99.99,,,-99.99,,2013-03-08 11:11:00,
2013-03-08 04:01:00,34.0,31.0,-100.00,SE,125,1.0,3.0,88,-99.99,,,-99.99,,2013-03-08 12:01:00,
2013-03-08 05:01:00,34.0,31.0,-100.00,SSW,200,2.0,6.0,88,-99.99,,,-99.99,,2013-03-08 13:01:00,
2013-03-08 05:10:00,33.0,31.0,-100.00,East,80,1.0,5.0,92,-99.99,,,-99.99,,2013-03-08 13:10:00,
2013-03-08 05:11:00,34.0,31.0,-100.00,SSW,200,2.0,6.0,88,-99.99,,,-99.99,,2013-03-08 13:11:00,
2013-03-08 06:02:00,33.0,31.0,-100.00,East,80,1.0,5.0,92,-99.99,,,-99.99,,2013-03-08 14:02:00,
2013-03-08 06:10:00,34.0,32.0,-100.00,ENE,60,2.0,3.0,92,-99.99,,,-99.99,,2013-03-08 14:10:00,
2013-03-08 07:02:00,34.0,32.0,-100.00,ENE,60,2.0,3.0,92,-99.99,,,-99.99,,2013-03-08 15:02:00,
2013-03-08 08:01:00,32.0,30.0,-100.00,SW,215,6.0,9.0,92,-99.99,,,-99.99,,2013-03-08 16:01:00,
2013-03-08 08:10:00,37.0,33.0,-100.00,ENE,70,0.0,2.0,85,-99.99,,,-99.99,,2013-03-08 16:10:00,
2013-03-08 09:00:00,39.0,33.0,-100.00,NE,50,3.0,6.0,78,-99.99,,,-99.99,,2013-03-08 17:00:00,
2013-03-08 09:02:00,37.0,33.0,-100.00,ENE,70,0.0,2.0,85,-99.99,,,-99.99,,2013-03-08 17:02:00,
2013-03-08 10:10:00,43.0,34.0,-100.00,SE,145,6.0,8.0,70,-99.99,,,-99.99,,2013-03-08 18:10:00,
2013-03-08 11:01:00,43.0,34.0,-100.00,SE,145,6.0,8.0,70,-99.99,,,-99.99,,2013-03-08 19:01:00,
2013-03-08 12:10:00,48.0,35.0,-100.00,SW,215,2.0,13.0,60,-99.99,,,-99.99,,2013-03-08 20:10:00,
2013-03-08 13:02:00,48.0,35.0,-100.00,SW,215,2.0,13.0,60,-99.99,,,-99.99,,2013-03-08 21:02:00,
2013-03-08 14:01:00,51.0,35.0,-100.00,South,170,3.0,8.0,54,-99.99,,,-99.99,,2013-03-08 22:01:00,
2013-03-08 14:10:00,52.0,34.0,-100.00,SW,235,3.0,7.0,50,-99.99,,,-99.99,,2013-03-08 22:10:00,
2013-03-08 14:11:00,51.0,35.0,-100.00,South,170,3.0,8.0,54,-99.99,,,-99.99,,2013-03-08 22:11:00,
2013-03-08 15:01:00,52.0,34.0,-100.00,SW,235,3.0,7.0,50,-99.99,,,-99.99,,2013-03-08 23:01:00,
2013-03-08 16:01:00,54.0,33.0,-100.00,NE,45,1.0,6.0,44,-99.99,,,-99.99,,2013-03-09 00:01:00,
2013-03-08 16:11:00,54.0,33.0,-100.00,NE,45,1.0,6.0,44,-99.99,,,-99.99,,2013-03-09 00:11:00,
2013-03-08 17:01:00,54.0,35.0,-100.00,NW,310,5.0,7.0,48,-99.99,,,-99.99,,2013-03-09 01:01:00,
2013-03-08 20:01:00,45.0,33.0,-100.00,ESE,115,1.0,2.0,62,-99.99,,,-99.99,,2013-03-09 04:01:00,
2013-03-08 20:11:00,45.0,33.0,-100.00,ESE,115,1.0,2.0,62,-99.99,,,-99.99,,2013-03-09 04:11:00,
2013-03-08 21:02:00,43.0,33.0,-100.00,SE,140,0.0,2.0,67,-99.99,,,-99.99,,2013-03-09 05:02:00,
2013-03-08 22:01:00,41.0,32.0,-100.00,West,260,2.0,3.0,70,-99.99,,,-99.99,,2013-03-09 06:01:00,
2013-03-08 22:11:00,41.0,32.0,-100.00,West,260,2.0,3.0,70,-99.99,,,-99.99,,2013-03-09 06:11:00,
2013-03-08 23:01:00,37.0,32.0,-100.00,West,275,1.0,2.0,81,-99.99,,,-99.99,,2013-03-09 07:01:00,
2013-03-08 23:10:00,34.0,30.0,-100.00,West,265,0.0,1.0,85,-99.99,,,-99.99,,2013-03-09 07:10:00,